createdAt,value
2022-09-20T00:04:45.523Z,102366.59
2022-09-20T00:09:36.201Z,102363.25
2022-09-20T00:14:27.756Z,102371.13
2022-09-20T00:19:24.269Z,102366.91
2022-09-20T00:24:16.060Z,102360.75
2022-09-20T00:29:08.020Z,102357.38
2022-09-20T00:34:11.075Z,102351.28
2022-09-20T00:39:07.937Z,102360.03
2022-09-20T00:43:59.026Z,102359.28
2022-09-20T00:48:49.943Z,102369.75
2022-09-20T00:53:43.700Z,102361.88
2022-09-20T00:58:41.300Z,102363.56
2022-09-20T01:03:34.189Z,102369.41
2022-09-20T01:08:29.213Z,102369.38
2022-09-20T01:13:21.963Z,102378.06
2022-09-20T01:18:15.788Z,102383.09
2022-09-20T01:23:20.110Z,102385.53
2022-09-20T01:28:13.375Z,102378.56
2022-09-20T01:33:14.369Z,102378.63
2022-09-20T01:38:22.147Z,102367.34
2022-09-20T01:43:21.550Z,102369.06
2022-09-20T01:48:21.845Z,102362.13
2022-09-20T01:53:43.499Z,102356.91
2022-09-20T01:59:25.158Z,102360.13
2022-09-20T02:04:57.205Z,102361.75
2022-09-20T02:10:19.473Z,102359.91
2022-09-20T02:15:28.279Z,102356.38
2022-09-20T02:20:35.146Z,102369.31
2022-09-20T02:25:44.631Z,102367.59
2022-09-20T02:30:51.400Z,102364.13
2022-09-20T02:36:01.617Z,102366.59
2022-09-20T02:41:14.536Z,102356.22
2022-09-20T02:46:18.878Z,102359.66
2022-09-20T02:51:18.742Z,102357.84
2022-09-20T02:56:18.022Z,102360.31
2022-09-20T03:01:29.250Z,102356.66
2022-09-20T03:06:36.250Z,102365.16
2022-09-20T03:11:35.180Z,102357.31
2022-09-20T03:16:37.665Z,102358.09
2022-09-20T03:21:39.065Z,102353.66
2022-09-20T03:26:41.270Z,102352.75
2022-09-20T03:31:48.305Z,102358.69
2022-09-20T03:36:53.243Z,102364.69
2022-09-20T03:41:58.121Z,102362.97
2022-09-20T03:46:55.262Z,102357.81
2022-09-20T03:51:52.133Z,102352.63
2022-09-20T03:57:16.060Z,102351.69
2022-09-20T04:02:27.485Z,102358.41
2022-09-20T04:07:24.883Z,102355.03
2022-09-20T04:12:26.956Z,102356.72
2022-09-20T04:17:34.797Z,102362.03
2022-09-20T04:22:28.314Z,102356.09
2022-09-20T04:27:24.781Z,102356.09
2022-09-20T04:32:24.823Z,102359.59
2022-09-20T04:37:26.148Z,102370.94
2022-09-20T04:42:45.298Z,102370.78
2022-09-20T04:48:13.649Z,102382.81
2022-09-20T04:53:44.722Z,102394.94
2022-09-20T04:58:51.369Z,102385.34
2022-09-20T05:04:11.118Z,102394.91
2022-09-20T05:09:29.276Z,102395.81
2022-09-20T05:14:51.584Z,102403.69
2022-09-20T05:20:01.868Z,102403.69
2022-09-20T05:25:43.449Z,102402.94
2022-09-20T05:30:41.067Z,102407.25
2022-09-20T05:35:41.942Z,102407.28
2022-09-20T05:40:40.286Z,102413.47
2022-09-20T05:46:01.877Z,102412.69
2022-09-20T05:51:03.856Z,102403.25
2022-09-20T05:56:09.552Z,102406.69
2022-09-20T06:01:05.947Z,102408.59
2022-09-20T06:06:07.118Z,102412.00
2022-09-20T06:11:21.384Z,102420.69
2022-09-20T06:16:20.319Z,102426.91
2022-09-20T06:21:27.019Z,102422.56
2022-09-20T06:26:23.548Z,102420.88
2022-09-20T06:31:15.733Z,102408.88
2022-09-20T06:36:22.266Z,102409.91
2022-09-20T06:41:28.781Z,102410.91
2022-09-20T06:46:21.240Z,102415.41
2022-09-20T06:51:12.753Z,102419.00
2022-09-20T06:56:04.986Z,102421.75
2022-09-20T07:00:58.418Z,102421.03
2022-09-20T07:05:49.019Z,102428.97
2022-09-20T07:10:40.704Z,102429.06
2022-09-20T07:15:33.620Z,102433.53
2022-09-20T07:20:27.013Z,102432.59
2022-09-20T07:25:18.269Z,102434.22
2022-09-20T07:30:13.915Z,102431.75
2022-09-20T07:35:04.644Z,102437.91
2022-09-20T07:39:57.821Z,102446.78
2022-09-20T07:44:51.473Z,102454.78
2022-09-20T07:49:41.806Z,102452.31
2022-09-20T07:54:32.566Z,102454.22
2022-09-20T07:59:28.315Z,102466.69
2022-09-20T08:04:19.093Z,102466.13
2022-09-20T08:09:11.306Z,102471.50
2022-09-20T08:14:05.205Z,102481.13
2022-09-20T08:19:00.833Z,102485.47
2022-09-20T08:23:54.187Z,102484.63
2022-09-20T08:28:47.975Z,102482.97
2022-09-20T08:33:39.056Z,102485.47
2022-09-20T08:43:46.815Z,102497.75
2022-09-20T08:48:38.942Z,102498.09
2022-09-20T08:53:32.269Z,102499.47
2022-09-20T08:58:21.884Z,102501.66
2022-09-20T09:03:16.968Z,102505.66
2022-09-20T09:08:16.224Z,102505.19
2022-09-20T09:13:09.725Z,102501.75
2022-09-20T09:18:01.513Z,102510.50
2022-09-20T09:23:00.873Z,102507.91
2022-09-20T09:27:57.172Z,102507.91
2022-09-20T09:32:51.035Z,102517.19
2022-09-20T09:37:40.863Z,102519.94
2022-09-20T09:42:33.187Z,102518.91
2022-09-20T09:47:31.298Z,102526.59
2022-09-20T09:52:26.379Z,102518.53
2022-09-20T09:57:46.748Z,102521.47
2022-09-20T10:03:12.007Z,102524.72
2022-09-20T10:08:18.542Z,102521.81
2022-09-20T10:13:21.487Z,102521.25
2022-09-20T10:18:36.559Z,102517.88
2022-09-20T10:24:02.486Z,102513.59
2022-09-20T10:29:05.793Z,102509.16
2022-09-20T10:34:21.802Z,102506.59
2022-09-20T10:39:24.902Z,102493.47
2022-09-20T10:44:32.350Z,102504.84
2022-09-20T10:49:38.852Z,102514.44
2022-09-20T10:54:50.039Z,102497.00
2022-09-20T10:59:49.232Z,102505.75
2022-09-20T11:05:13.276Z,102521.31
2022-09-20T11:10:17.513Z,102529.78
2022-09-20T11:15:18.740Z,102530.38
2022-09-20T11:20:21.378Z,102536.25
2022-09-20T11:25:24.977Z,102537.66
2022-09-20T11:30:21.442Z,102530.34
2022-09-20T11:35:34.348Z,102531.94
2022-09-20T11:40:35.755Z,102530.13
2022-09-20T11:45:28.678Z,102521.44
2022-09-20T11:50:53.764Z,102540.72
2022-09-20T11:55:54.420Z,102535.69
2022-09-20T12:00:48.299Z,102537.84
2022-09-20T12:05:42.002Z,102538.94
2022-09-20T12:10:35.504Z,102528.72
2022-09-20T12:15:34.402Z,102534.31
2022-09-20T12:21:03.926Z,102540.44
2022-09-20T12:26:06.786Z,102536.84
2022-09-20T12:31:29.880Z,102533.25
2022-09-20T12:36:23.695Z,102534.06
2022-09-20T12:41:26.199Z,102533.09
2022-09-20T12:46:32.885Z,102522.59
2022-09-20T12:51:48.900Z,102519.94
2022-09-20T12:56:46.668Z,102515.56
2022-09-20T13:01:43.974Z,102515.56
2022-09-20T13:06:37.278Z,102530.41
2022-09-20T13:11:31.672Z,102512.91
2022-09-20T13:16:25.936Z,102520.78
2022-09-20T13:21:17.151Z,102525.13
2022-09-20T13:26:16.376Z,102533.88
2022-09-20T13:31:28.543Z,102528.66
2022-09-20T13:36:30.416Z,102533.03
2022-09-20T13:41:24.112Z,102533.97
2022-09-20T13:46:19.884Z,102529.63
2022-09-20T13:51:21.662Z,102538.38
2022-09-20T13:56:17.345Z,102530.63
2022-09-20T14:01:25.401Z,102531.63
2022-09-20T14:06:18.067Z,102529.09
2022-09-20T14:11:19.115Z,102523.91
2022-09-20T14:16:13.520Z,102519.59
2022-09-20T14:21:04.947Z,102530.91
2022-09-20T14:26:24.917Z,102519.59
2022-09-20T14:31:22.469Z,102515.22
2022-09-20T14:36:18.751Z,102519.63
2022-09-20T14:41:09.570Z,102517.00
2022-09-20T14:46:03.639Z,102506.63
2022-09-20T14:51:22.681Z,102500.50
2022-09-20T14:56:15.354Z,102511.84
2022-09-20T15:01:09.970Z,102494.41
2022-09-20T15:06:01.127Z,102502.25
2022-09-20T15:10:56.618Z,102497.84
2022-09-20T15:15:49.634Z,102493.44
2022-09-20T15:20:42.504Z,102496.03
2022-09-20T15:25:34.110Z,102496.91
2022-09-20T15:30:26.814Z,102491.66
2022-09-20T15:35:16.751Z,102486.38
2022-09-20T15:40:10.225Z,102496.78
2022-09-20T15:45:00.519Z,102489.78
2022-09-20T15:49:55.266Z,102488.91
2022-09-20T15:54:48.450Z,102492.44
2022-09-20T15:59:44.736Z,102491.53
2022-09-20T16:04:36.593Z,102489.81
2022-09-20T16:09:30.108Z,102489.81
2022-09-20T16:14:20.437Z,102494.16
2022-09-20T16:19:23.150Z,102501.94
2022-09-20T16:24:16.247Z,102506.31
2022-09-20T16:29:08.686Z,102501.72
2022-09-20T16:33:58.868Z,102500.78
2022-09-20T16:38:48.989Z,102505.94
2022-09-20T16:43:41.693Z,102506.78
2022-09-20T16:48:36.468Z,102515.44
2022-09-20T16:53:26.771Z,102524.91
2022-09-20T16:58:16.750Z,102526.53
2022-09-20T17:03:06.708Z,102523.84
2022-09-20T17:08:04.937Z,102535.06
2022-09-20T17:12:58.473Z,102528.91
2022-09-20T17:17:50.620Z,102530.63
2022-09-20T17:22:40.120Z,102541.78
2022-09-20T17:27:33.591Z,102541.66
2022-09-20T17:32:23.128Z,102545.03
2022-09-20T17:37:12.579Z,102544.03
2022-09-20T17:42:02.179Z,102556.06
2022-09-20T17:46:55.058Z,102562.91
2022-09-20T17:51:45.160Z,102562.81
2022-09-20T17:56:35.740Z,102565.34
2022-09-20T18:01:26.014Z,102573.91
2022-09-20T18:06:19.768Z,102579.91
2022-09-20T18:11:09.483Z,102579.78
2022-09-20T18:15:59.150Z,102584.88
2022-09-20T18:20:48.573Z,102583.91
2022-09-20T18:25:52.732Z,102587.22
2022-09-20T18:30:42.072Z,102597.34
2022-09-20T18:35:31.403Z,102603.25
2022-09-20T18:40:23.023Z,102601.44
2022-09-20T18:45:16.591Z,102609.13
2022-09-20T18:50:10.496Z,102607.28
2022-09-20T18:55:01.644Z,102612.25
2022-09-20T18:59:55.259Z,102616.34
2022-09-20T19:05:03.713Z,102617.91
2022-09-20T19:10:01.829Z,102625.59
2022-09-20T19:15:00.069Z,102629.81
2022-09-20T19:19:53.391Z,102627.78
2022-09-20T19:24:50.104Z,102634.53
2022-09-20T19:29:42.680Z,102634.50
2022-09-20T19:34:33.409Z,102641.22
2022-09-20T19:39:26.844Z,102648.88
2022-09-20T19:44:25.835Z,102651.41
2022-09-20T19:49:19.548Z,102656.44
2022-09-20T19:54:12.046Z,102663.09
2022-09-20T19:59:01.649Z,102664.69
2022-09-20T20:03:51.400Z,102668.88
2022-09-20T20:08:50.773Z,102671.38
2022-09-20T20:13:59.897Z,102669.47
2022-09-20T20:18:57.719Z,102671.75
2022-09-20T20:23:55.711Z,102671.59
2022-09-20T20:28:45.051Z,102679.25
2022-09-20T20:33:34.681Z,102675.47
2022-09-20T20:38:29.727Z,102682.22
2022-09-20T20:43:21.749Z,102689.00
2022-09-20T20:48:14.372Z,102691.56
2022-09-20T20:53:06.988Z,102696.63
2022-09-20T20:57:58.521Z,102693.88
2022-09-20T21:02:50.903Z,102697.22
2022-09-20T21:07:40.783Z,102699.75
2022-09-20T21:12:31.086Z,102698.81
2022-09-20T21:17:21.112Z,102704.84
2022-09-20T21:22:13.773Z,102703.91
2022-09-20T21:27:04.725Z,102708.88
2022-09-20T21:31:54.203Z,102716.53
2022-09-20T21:36:44.780Z,102720.81
2022-09-20T21:41:37.737Z,102714.69
2022-09-20T21:46:28.340Z,102721.47
2022-09-20T21:51:18.921Z,102715.38
2022-09-20T21:56:09.095Z,102718.00
2022-09-20T22:01:02.230Z,102711.09
2022-09-20T22:05:51.668Z,102717.13
2022-09-20T22:10:41.019Z,102709.25
2022-09-20T22:15:30.353Z,102717.91
2022-09-20T22:20:27.877Z,102718.72
2022-09-20T22:25:18.141Z,102715.31
2022-09-20T22:30:08.403Z,102711.84
2022-09-20T22:34:59.467Z,102717.84
2022-09-20T22:39:51.773Z,102725.59
2022-09-20T22:44:41.383Z,102727.38
2022-09-20T22:49:30.961Z,102729.16
2022-09-20T22:54:20.549Z,102720.47
2022-09-20T22:59:13.756Z,102711.81
2022-09-20T23:04:04.499Z,102715.28
2022-09-20T23:08:55.060Z,102720.47
2022-09-20T23:13:44.642Z,102728.19
2022-09-20T23:18:37.157Z,102716.97
2022-09-20T23:23:26.767Z,102710.78
2022-09-20T23:28:16.368Z,102711.81
2022-09-20T23:33:05.953Z,102719.69
2022-09-20T23:37:58.383Z,102722.31
2022-09-20T23:42:48.180Z,102717.13
2022-09-20T23:47:37.790Z,102719.75
2022-09-20T23:52:27.265Z,102730.16
2022-09-20T23:57:19.487Z,102731.91
